RPLIVTSG

Guest
Details From RPLI - Laoag Intl
To VTSG - Krabi
Flight Number -
Tags Generated
Created
Modified
Stats Distance 1,396 nm / 2,585 km
Max Altitude 0 ft / 0 m
Waypoints 3
Social Downloads 0
Likes 0
Share VATSIM

Download

Looking for another format? Having issues loading an existing format? Contact us
Advertisement - Login to hide

Notes

Generated

Route

RPLI KBI VTSG

ID Type Via Altitude Latitude Longitude Leg Dist Tot Dist Heading (true) Name
O RPLI APT - 0 ft / 0 m 18.16364˚ 120.52987˚ - 0 nm - -
KBI VOR - 0 ft / 0 m 8.10755˚ 98.97752˚ 1395 nm 1395 nm 247° / 242° KRABI VOR-DME
O VTSG APT - 0 ft / 0 m 8.10647˚ 98.98012˚ 0 nm 1395 nm 113° / 113° -

Altitude Profile

Advertisement - Login to hide

Weather


0- 5 10 15 20 25 30 35+ Temperature / ° C

Clouds and Precipitation
Forecast for 2017-12-13 12:00 UTC. Updated 14 minutes ago

Ground ~20,000 ft ~40,000 ft Winds

RPLI

Details ICAO RPLI (LAO)
Name LAOAG INTL
Region Philippines
Timezone Asia/Manila (UTC+8.0)
Stats Elevation 25 ft / 8 m (AMSL)
Location 18.176144° 120.531104°
Runways 1
Magnetic Variation 2.864° W

METAR

RPLI 130900Z 08004KT 9999 FEW019 29/20 Q1007 NOSIG RMK A2974

Decode

TAF

TAF RPLI 130500Z 1306/1406 06006KT 9999 FEW019 SCT100 TEMPO 1306/1312 04008KT FEW019 BKN100

Decode

Departure Runways

ID Width Length Bearing (true) Bearing (mag) Surface Threshold Offset Overrun Length
01 148 ft / 45 m 9,165 ft / 2,793 m 5.37° 8.23° Concrete 1,181 ft / 360 m 1,200 ft / 366 m
19 148 ft / 45 m 9,165 ft / 2,793 m 185.37° 188.23° Concrete 0 ft / 0 m 0 ft / 0 m

VTSG

Details ICAO VTSG (KBV)
Name Krabi
Region Thailand
Timezone Asia/Bangkok (UTC+7.0)
Stats Elevation 82 ft / 25 m (AMSL)
Location 8.095977° 98.988763°
Runways 1
Magnetic Variation 0.388° W

METAR

VTSG 130900Z 01003KT 340V060 9999 FEW020 32/23 Q1009

Decode

TAF

TAF VTSG 130500Z 1306/1406 06005KT 9999 FEW020 BECMG 1312/1314 VRB02KT 9000 BECMG 1320/1322 00000KT 4000 BR BECMG 1402/1404 06006KT 9999 NSW

Decode

Destination Runways

ID Width Length Bearing (true) Bearing (mag) Surface Threshold Offset Overrun Length
14 148 ft / 45 m 9,880 ft / 3,012 m 140.79° 141.18° Asphalt 0 ft / 0 m 197 ft / 60 m
32 148 ft / 45 m 9,880 ft / 3,012 m 320.80° 321.19° Asphalt 0 ft / 0 m 197 ft / 60 m

Approach Navaids

Runway Type Ident Frequency Range Bearing (true) Bearing (mag) Slope Elevation
32 Localiser IKBI 110.10 MHz 18 nm / 33 km 320.80° 321.18° - 71 ft / 22 m (AMSL)
32 Glidescope IKBI 110.10 MHz 10 nm / 19 km 320.80° 321.18° 3.00° 77 ft / 23 m (AMSL)
32 DME IKBI 110.10 MHz 18 nm / 33 km - - - 71 ft / 22 m (AMSL)